sensor_id;sensor_type;location;lat;lon;timestamp;temperature;humidity
65836;SHT30;52595;51.608;7.216;2023-03-01T00:01:12;-1.24;82.52
65836;SHT30;52595;51.608;7.216;2023-03-01T00:03:39;-1.30;82.55
65836;SHT30;52595;51.608;7.216;2023-03-01T00:06:05;-1.40;82.80
65836;SHT30;52595;51.608;7.216;2023-03-01T00:08:31;-1.51;83.11
65836;SHT30;52595;51.608;7.216;2023-03-01T00:11:22;-1.57;83.30
65836;SHT30;52595;51.608;7.216;2023-03-01T00:13:49;-1.57;83.96
65836;SHT30;52595;51.608;7.216;2023-03-01T00:16:21;-1.58;83.73
65836;SHT30;52595;51.608;7.216;2023-03-01T00:18:46;-1.61;83.87
65836;SHT30;52595;51.608;7.216;2023-03-01T00:21:12;-1.77;83.78
65836;SHT30;52595;51.608;7.216;2023-03-01T00:23:38;-1.82;84.24
65836;SHT30;52595;51.608;7.216;2023-03-01T00:26:09;-1.82;84.64
65836;SHT30;52595;51.608;7.216;2023-03-01T00:28:36;-1.79;84.70
65836;SHT30;52595;51.608;7.216;2023-03-01T00:31:06;-1.70;84.48
65836;SHT30;52595;51.608;7.216;2023-03-01T00:33:32;-1.72;84.54
65836;SHT30;52595;51.608;7.216;2023-03-01T00:35:58;-1.84;84.04
65836;SHT30;52595;51.608;7.216;2023-03-01T00:38:24;-1.97;84.90
65836;SHT30;52595;51.608;7.216;2023-03-01T00:40:49;-2.06;85.10
65836;SHT30;52595;51.608;7.216;2023-03-01T00:43:14;-2.09;85.55
65836;SHT30;52595;51.608;7.216;2023-03-01T00:45:40;-2.25;85.72
65836;SHT30;52595;51.608;7.216;2023-03-01T00:48:06;-2.26;86.55
65836;SHT30;52595;51.608;7.216;2023-03-01T00:50:31;-2.23;86.71
65836;SHT30;52595;51.608;7.216;2023-03-01T00:52:57;-2.26;86.52
65836;SHT30;52595;51.608;7.216;2023-03-01T00:55:23;-2.31;86.40
65836;SHT30;52595;51.608;7.216;2023-03-01T00:57:48;-2.28;86.72
65836;SHT30;52595;51.608;7.216;2023-03-01T01:00:14;-2.32;86.75
65836;SHT30;52595;51.608;7.216;2023-03-01T01:02:40;-2.31;87.01
65836;SHT30;52595;51.608;7.216;2023-03-01T01:05:06;-2.38;86.95
65836;SHT30;52595;51.608;7.216;2023-03-01T01:07:31;-2.31;87.16
65836;SHT30;52595;51.608;7.216;2023-03-01T01:09:57;-2.35;86.70
65836;SHT30;52595;51.608;7.216;2023-03-01T01:12:22;-2.36;86.96
65836;SHT30;52595;51.608;7.216;2023-03-01T01:14:47;-2.39;86.97
65836;SHT30;52595;51.608;7.216;2023-03-01T01:17:13;-2.43;87.27
65836;SHT30;52595;51.608;7.216;2023-03-01T01:19:38;-2.39;87.27
65836;SHT30;52595;51.608;7.216;2023-03-01T01:22:04;-2.38;86.94
65836;SHT30;52595;51.608;7.216;2023-03-01T01:24:29;-2.32;86.73
65836;SHT30;52595;51.608;7.216;2023-03-01T01:26:55;-2.38;86.83
65836;SHT30;52595;51.608;7.216;2023-03-01T01:29:21;-2.36;86.59
65836;SHT30;52595;51.608;7.216;2023-03-01T01:31:46;-2.46;86.62
65836;SHT30;52595;51.608;7.216;2023-03-01T01:34:15;-2.41;86.82
65836;SHT30;52595;51.608;7.216;2023-03-01T01:36:41;-2.36;86.89
65836;SHT30;52595;51.608;7.216;2023-03-01T01:39:06;-2.48;87.05
65836;SHT30;52595;51.608;7.216;2023-03-01T01:41:32;-2.50;87.43
65836;SHT30;52595;51.608;7.216;2023-03-01T01:44:20;-2.39;87.33
65836;SHT30;52595;51.608;7.216;2023-03-01T01:46:57;-2.41;87.05
65836;SHT30;52595;51.608;7.216;2023-03-01T01:54:37;-2.29;86.31
65836;SHT30;52595;51.608;7.216;2023-03-01T01:57:09;-2.22;86.00
65836;SHT30;52595;51.608;7.216;2023-03-01T01:59:36;-2.25;85.72
65836;SHT30;52595;51.608;7.216;2023-03-01T02:02:03;-2.16;85.65
65836;SHT30;52595;51.608;7.216;2023-03-01T02:04:31;-2.28;85.49
65836;SHT30;52595;51.608;7.216;2023-03-01T02:07:21;-2.31;86.32
65836;SHT30;52595;51.608;7.216;2023-03-01T02:09:49;-2.38;86.36
65836;SHT30;52595;51.608;7.216;2023-03-01T02:12:18;-2.45;86.44
65836;SHT30;52595;51.608;7.216;2023-03-01T02:14:44;-2.32;86.48
65836;SHT30;52595;51.608;7.216;2023-03-01T02:17:11;-2.39;86.43
65836;SHT30;52595;51.608;7.216;2023-03-01T02:22:20;-2.36;85.91
65836;SHT30;52595;51.608;7.216;2023-03-01T02:25:00;-2.49;85.93
65836;SHT30;52595;51.608;7.216;2023-03-01T02:27:36;-2.56;86.25
65836;SHT30;52595;51.608;7.216;2023-03-01T02:30:02;-2.67;86.83
65836;SHT30;52595;51.608;7.216;2023-03-01T02:32:28;-2.63;86.91
65836;SHT30;52595;51.608;7.216;2023-03-01T02:34:55;-2.60;87.22
65836;SHT30;52595;51.608;7.216;2023-03-01T02:37:21;-2.66;87.28
65836;SHT30;52595;51.608;7.216;2023-03-01T02:39:53;-2.77;87.23
65836;SHT30;52595;51.608;7.216;2023-03-01T02:42:35;-2.88;87.49
65836;SHT30;52595;51.608;7.216;2023-03-01T02:45:02;-2.96;88.03
65836;SHT30;52595;51.608;7.216;2023-03-01T02:47:28;-2.74;88.30
65836;SHT30;52595;51.608;7.216;2023-03-01T02:49:53;-2.73;87.87
65836;SHT30;52595;51.608;7.216;2023-03-01T02:52:45;-2.72;87.75
65836;SHT30;52595;51.608;7.216;2023-03-01T02:55:17;-2.72;87.55
65836;SHT30;52595;51.608;7.216;2023-03-01T02:57:44;-2.73;87.49
65836;SHT30;52595;51.608;7.216;2023-03-01T03:00:15;-2.67;87.33
65836;SHT30;52595;51.608;7.216;2023-03-01T03:02:45;-2.77;87.33
65836;SHT30;52595;51.608;7.216;2023-03-01T03:05:23;-2.70;87.42
65836;SHT30;52595;51.608;7.216;2023-03-01T03:07:50;-2.76;87.61
65836;SHT30;52595;51.608;7.216;2023-03-01T03:10:20;-2.77;87.69
65836;SHT30;52595;51.608;7.216;2023-03-01T03:12:50;-2.80;87.87
65836;SHT30;52595;51.608;7.216;2023-03-01T03:15:16;-2.73;87.65
65836;SHT30;52595;51.608;7.216;2023-03-01T03:17:42;-2.77;87.69
65836;SHT30;52595;51.608;7.216;2023-03-01T03:20:10;-2.79;87.66
65836;SHT30;52595;51.608;7.216;2023-03-01T03:22:38;-2.81;87.83
65836;SHT30;52595;51.608;7.216;2023-03-01T03:25:06;-2.76;87.71
65836;SHT30;52595;51.608;7.216;2023-03-01T03:27:39;-2.81;87.74
65836;SHT30;52595;51.608;7.216;2023-03-01T03:30:06;-2.83;87.77
65836;SHT30;52595;51.608;7.216;2023-03-01T03:32:38;-2.93;87.86
65836;SHT30;52595;51.608;7.216;2023-03-01T03:35:05;-2.98;88.33
65836;SHT30;52595;51.608;7.216;2023-03-01T03:37:40;-3.01;88.50
65836;SHT30;52595;51.608;7.216;2023-03-01T03:40:26;-3.04;88.51
65836;SHT30;52595;51.608;7.216;2023-03-01T03:42:52;-3.07;88.77
65836;SHT30;52595;51.608;7.216;2023-03-01T03:45:18;-3.11;88.76
65836;SHT30;52595;51.608;7.216;2023-03-01T03:47:44;-3.12;88.72
65836;SHT30;52595;51.608;7.216;2023-03-01T03:50:11;-3.09;88.78
65836;SHT30;52595;51.608;7.216;2023-03-01T03:52:37;-3.19;88.85
65836;SHT30;52595;51.608;7.216;2023-03-01T03:55:03;-3.21;89.25
65836;SHT30;52595;51.608;7.216;2023-03-01T03:57:28;-3.22;89.39
65836;SHT30;52595;51.608;7.216;2023-03-01T03:59:54;-3.15;89.56
65836;SHT30;52595;51.608;7.216;2023-03-01T04:02:19;-3.22;89.23
65836;SHT30;52595;51.608;7.216;2023-03-01T04:04:50;-3.25;89.57
65836;SHT30;52595;51.608;7.216;2023-03-01T04:07:18;-3.24;89.37
65836;SHT30;52595;51.608;7.216;2023-03-01T04:09:44;-3.25;89.72
65836;SHT30;52595;51.608;7.216;2023-03-01T04:12:09;-3.28;89.24
65836;SHT30;52595;51.608;7.216;2023-03-01T04:14:35;-3.31;89.41
65836;SHT30;52595;51.608;7.216;2023-03-01T04:17:01;-3.31;89.34
65836;SHT30;52595;51.608;7.216;2023-03-01T04:19:26;-3.41;89.96
65836;SHT30;52595;51.608;7.216;2023-03-01T04:21:52;-3.22;89.76
65836;SHT30;52595;51.608;7.216;2023-03-01T04:24:18;-3.25;89.29
65836;SHT30;52595;51.608;7.216;2023-03-01T04:26:43;-3.25;89.32
65836;SHT30;52595;51.608;7.216;2023-03-01T04:29:08;-3.15;89.37
65836;SHT30;52595;51.608;7.216;2023-03-01T04:31:34;-3.05;89.11
65836;SHT30;52595;51.608;7.216;2023-03-01T04:33:59;-3.03;88.92
65836;SHT30;52595;51.608;7.216;2023-03-01T04:36:27;-3.07;88.39
65836;SHT30;52595;51.608;7.216;2023-03-01T04:38:53;-3.01;88.63
65836;SHT30;52595;51.608;7.216;2023-03-01T04:41:21;-3.00;88.30
65836;SHT30;52595;51.608;7.216;2023-03-01T04:43:47;-3.01;88.57
65836;SHT30;52595;51.608;7.216;2023-03-01T04:46:16;-2.93;88.42
65836;SHT30;52595;51.608;7.216;2023-03-01T04:48:43;-2.97;88.22
65836;SHT30;52595;51.608;7.216;2023-03-01T04:51:09;-3.04;88.36
65836;SHT30;52595;51.608;7.216;2023-03-01T04:53:35;-2.97;88.54
65836;SHT30;52595;51.608;7.216;2023-03-01T04:56:03;-2.96;88.05
65836;SHT30;52595;51.608;7.216;2023-03-01T04:58:29;-3.00;88.22
65836;SHT30;52595;51.608;7.216;2023-03-01T05:00:54;-3.04;88.40
65836;SHT30;52595;51.608;7.216;2023-03-01T05:03:20;-3.05;88.10
65836;SHT30;52595;51.608;7.216;2023-03-01T05:05:49;-3.04;88.36
65836;SHT30;52595;51.608;7.216;2023-03-01T05:08:15;-2.90;88.37
65836;SHT30;52595;51.608;7.216;2023-03-01T05:10:52;-2.88;88.31
65836;SHT30;52595;51.608;7.216;2023-03-01T05:13:19;-2.94;88.11
65836;SHT30;52595;51.608;7.216;2023-03-01T05:15:49;-2.96;88.17
65836;SHT30;52595;51.608;7.216;2023-03-01T05:18:18;-2.91;87.98
65836;SHT30;52595;51.608;7.216;2023-03-01T05:20:44;-2.86;88.15
65836;SHT30;52595;51.608;7.216;2023-03-01T05:23:10;-2.86;88.00
65836;SHT30;52595;51.608;7.216;2023-03-01T05:25:35;-2.91;87.93
65836;SHT30;52595;51.608;7.216;2023-03-01T05:28:06;-2.90;88.15
65836;SHT30;52595;51.608;7.216;2023-03-01T05:30:33;-3.00;88.12
65836;SHT30;52595;51.608;7.216;2023-03-01T05:32:59;-3.05;88.52
65836;SHT30;52595;51.608;7.216;2023-03-01T05:35:24;-3.09;88.71
65836;SHT30;52595;51.608;7.216;2023-03-01T05:37:50;-3.07;88.59
65836;SHT30;52595;51.608;7.216;2023-03-01T05:40:19;-3.05;88.41
65836;SHT30;52595;51.608;7.216;2023-03-01T05:42:49;-3.08;88.71
65836;SHT30;52595;51.608;7.216;2023-03-01T05:45:16;-3.12;89.06
65836;SHT30;52595;51.608;7.216;2023-03-01T05:47:43;-3.03;88.87
65836;SHT30;52595;51.608;7.216;2023-03-01T05:50:16;-3.09;88.77
65836;SHT30;52595;51.608;7.216;2023-03-01T05:52:48;-3.09;88.89
65836;SHT30;52595;51.608;7.216;2023-03-01T05:55:19;-3.09;88.86
65836;SHT30;52595;51.608;7.216;2023-03-01T05:57:46;-3.14;88.97
65836;SHT30;52595;51.608;7.216;2023-03-01T06:00:13;-3.09;88.83
65836;SHT30;52595;51.608;7.216;2023-03-01T06:02:39;-3.15;88.71
65836;SHT30;52595;51.608;7.216;2023-03-01T06:05:06;-3.15;89.10
65836;SHT30;52595;51.608;7.216;2023-03-01T06:07:32;-3.11;88.91
65836;SHT30;52595;51.608;7.216;2023-03-01T06:09:58;-3.09;88.97
65836;SHT30;52595;51.608;7.216;2023-03-01T06:12:23;-3.08;88.92
65836;SHT30;52595;51.608;7.216;2023-03-01T06:14:48;-3.08;89.08
65836;SHT30;52595;51.608;7.216;2023-03-01T06:17:14;-3.12;88.99
65836;SHT30;52595;51.608;7.216;2023-03-01T06:19:39;-3.17;89.12
65836;SHT30;52595;51.608;7.216;2023-03-01T06:22:05;-3.14;89.19
65836;SHT30;52595;51.608;7.216;2023-03-01T06:24:30;-3.09;88.96
65836;SHT30;52595;51.608;7.216;2023-03-01T06:26:56;-3.18;89.11
65836;SHT30;52595;51.608;7.216;2023-03-01T06:29:22;-3.22;89.15
65836;SHT30;52595;51.608;7.216;2023-03-01T06:31:48;-3.24;89.17
65836;SHT30;52595;51.608;7.216;2023-03-01T06:34:14;-3.15;89.35
65836;SHT30;52595;51.608;7.216;2023-03-01T06:36:39;-3.22;89.25
65836;SHT30;52595;51.608;7.216;2023-03-01T06:39:05;-3.19;89.36
65836;SHT30;52595;51.608;7.216;2023-03-01T06:41:31;-3.21;89.33
65836;SHT30;52595;51.608;7.216;2023-03-01T06:43:57;-3.14;89.27
65836;SHT30;52595;51.608;7.216;2023-03-01T06:46:24;-3.03;89.03
65836;SHT30;52595;51.608;7.216;2023-03-01T06:48:49;-2.91;88.49
65836;SHT30;52595;51.608;7.216;2023-03-01T06:51:14;-2.96;88.28
65836;SHT30;52595;51.608;7.216;2023-03-01T06:53:40;-2.88;88.21
65836;SHT30;52595;51.608;7.216;2023-03-01T06:56:05;-2.86;88.17
65836;SHT30;52595;51.608;7.216;2023-03-01T06:58:31;-2.93;88.31
65836;SHT30;52595;51.608;7.216;2023-03-01T07:00:56;-2.80;88.05
65836;SHT30;52595;51.608;7.216;2023-03-01T07:03:22;-2.81;87.82
65836;SHT30;52595;51.608;7.216;2023-03-01T07:05:51;-2.76;87.76
65836;SHT30;52595;51.608;7.216;2023-03-01T07:08:19;-2.72;87.74
65836;SHT30;52595;51.608;7.216;2023-03-01T07:10:45;-2.74;87.64
65836;SHT30;52595;51.608;7.216;2023-03-01T07:13:10;-2.74;87.89
65836;SHT30;52595;51.608;7.216;2023-03-01T07:15:36;-2.69;87.81
65836;SHT30;52595;51.608;7.216;2023-03-01T07:18:01;-2.62;87.58
65836;SHT30;52595;51.608;7.216;2023-03-01T07:20:27;-2.60;87.32
65836;SHT30;52595;51.608;7.216;2023-03-01T07:22:54;-2.46;86.93
65836;SHT30;52595;51.608;7.216;2023-03-01T07:25:19;-2.45;86.83
65836;SHT30;52595;51.608;7.216;2023-03-01T07:27:51;-2.29;86.47
65836;SHT30;52595;51.608;7.216;2023-03-01T07:30:18;-2.23;85.99
65836;SHT30;52595;51.608;7.216;2023-03-01T07:32:43;-2.21;86.13
65836;SHT30;52595;51.608;7.216;2023-03-01T07:35:10;-2.16;86.04
65836;SHT30;52595;51.608;7.216;2023-03-01T07:37:35;-2.12;85.85
65836;SHT30;52595;51.608;7.216;2023-03-01T07:40:01;-2.08;85.69
65836;SHT30;52595;51.608;7.216;2023-03-01T07:42:26;-1.99;85.39
65836;SHT30;52595;51.608;7.216;2023-03-01T07:44:51;-1.89;84.80
65836;SHT30;52595;51.608;7.216;2023-03-01T07:47:17;-1.87;84.86
65836;SHT30;52595;51.608;7.216;2023-03-01T07:49:42;-1.84;84.83
65836;SHT30;52595;51.608;7.216;2023-03-01T07:52:12;-1.79;84.77
65836;SHT30;52595;51.608;7.216;2023-03-01T07:54:38;-1.68;84.28
65836;SHT30;52595;51.608;7.216;2023-03-01T07:57:04;-1.63;84.17
65836;SHT30;52595;51.608;7.216;2023-03-01T07:59:29;-1.56;83.86
65836;SHT30;52595;51.608;7.216;2023-03-01T08:01:56;-1.58;83.95
65836;SHT30;52595;51.608;7.216;2023-03-01T08:04:22;-1.48;83.84
65836;SHT30;52595;51.608;7.216;2023-03-01T08:06:48;-1.42;83.33
65836;SHT30;52595;51.608;7.216;2023-03-01T08:09:13;-1.42;83.24
65836;SHT30;52595;51.608;7.216;2023-03-01T08:11:39;-1.37;83.28
65836;SHT30;52595;51.608;7.216;2023-03-01T08:14:05;-1.32;83.27
65836;SHT30;52595;51.608;7.216;2023-03-01T08:16:31;-1.26;83.01
65836;SHT30;52595;51.608;7.216;2023-03-01T08:19:10;-1.20;82.96
65836;SHT30;52595;51.608;7.216;2023-03-01T08:21:35;-1.13;82.99
65836;SHT30;52595;51.608;7.216;2023-03-01T08:24:05;-1.00;82.13
65836;SHT30;52595;51.608;7.216;2023-03-01T08:26:32;-0.92;81.81
65836;SHT30;52595;51.608;7.216;2023-03-01T08:28:57;-0.83;81.55
65836;SHT30;52595;51.608;7.216;2023-03-01T08:31:29;-0.79;81.41
65836;SHT30;52595;51.608;7.216;2023-03-01T08:33:58;-0.69;81.15
65836;SHT30;52595;51.608;7.216;2023-03-01T08:36:26;-0.64;81.01
65836;SHT30;52595;51.608;7.216;2023-03-01T08:38:52;-0.59;81.01
65836;SHT30;52595;51.608;7.216;2023-03-01T08:41:18;-0.54;81.06
65836;SHT30;52595;51.608;7.216;2023-03-01T08:43:43;-0.54;81.00
65836;SHT30;52595;51.608;7.216;2023-03-01T08:46:09;-0.52;81.24
65836;SHT30;52595;51.608;7.216;2023-03-01T08:48:35;-0.39;81.47
65836;SHT30;52595;51.608;7.216;2023-03-01T08:51:08;-0.32;81.43
65836;SHT30;52595;51.608;7.216;2023-03-01T08:53:34;-0.19;81.01
65836;SHT30;52595;51.608;7.216;2023-03-01T08:56:00;-0.11;80.77
65836;SHT30;52595;51.608;7.216;2023-03-01T08:58:27;0.02;80.21
65836;SHT30;52595;51.608;7.216;2023-03-01T09:00:53;0.09;79.45
65836;SHT30;52595;51.608;7.216;2023-03-01T09:03:18;0.18;79.54
65836;SHT30;52595;51.608;7.216;2023-03-01T09:05:43;0.26;79.22
65836;SHT30;52595;51.608;7.216;2023-03-01T09:08:11;0.41;79.05
65836;SHT30;52595;51.608;7.216;2023-03-01T09:10:39;0.46;78.79
65836;SHT30;52595;51.608;7.216;2023-03-01T09:13:04;0.58;78.14
65836;SHT30;52595;51.608;7.216;2023-03-01T09:15:30;0.68;77.92
65836;SHT30;52595;51.608;7.216;2023-03-01T09:17:55;0.69;77.87
65836;SHT30;52595;51.608;7.216;2023-03-01T09:20:21;0.79;77.91
65836;SHT30;52595;51.608;7.216;2023-03-01T09:22:46;0.88;77.69
65836;SHT30;52595;51.608;7.216;2023-03-01T09:25:12;0.96;77.43
65836;SHT30;52595;51.608;7.216;2023-03-01T09:27:37;1.11;76.93
65836;SHT30;52595;51.608;7.216;2023-03-01T09:30:03;1.22;75.69
65836;SHT30;52595;51.608;7.216;2023-03-01T09:32:32;1.35;75.52
65836;SHT30;52595;51.608;7.216;2023-03-01T09:34:58;1.43;75.14
65836;SHT30;52595;51.608;7.216;2023-03-01T09:37:28;1.56;74.55
65836;SHT30;52595;51.608;7.216;2023-03-01T09:39:54;1.68;74.11
65836;SHT30;52595;51.608;7.216;2023-03-01T09:42:19;1.78;73.46
65836;SHT30;52595;51.608;7.216;2023-03-01T09:44:51;1.83;72.84
65836;SHT30;52595;51.608;7.216;2023-03-01T09:47:29;1.96;72.59
65836;SHT30;52595;51.608;7.216;2023-03-01T09:50:15;2.04;72.05
65836;SHT30;52595;51.608;7.216;2023-03-01T09:52:48;2.25;71.72
65836;SHT30;52595;51.608;7.216;2023-03-01T09:55:20;2.31;70.61
65836;SHT30;52595;51.608;7.216;2023-03-01T09:58:00;2.35;70.83
65836;SHT30;52595;51.608;7.216;2023-03-01T10:00:44;2.38;70.91
65836;SHT30;52595;51.608;7.216;2023-03-01T10:03:26;2.52;69.95
65836;SHT30;52595;51.608;7.216;2023-03-01T10:06:13;2.66;68.70
65836;SHT30;52595;51.608;7.216;2023-03-01T10:11:27;2.91;68.12
65836;SHT30;52595;51.608;7.216;2023-03-01T10:19:34;3.23;67.33
65836;SHT30;52595;51.608;7.216;2023-03-01T10:22:24;3.28;67.13
65836;SHT30;52595;51.608;7.216;2023-03-01T10:24:53;3.20;67.41
65836;SHT30;52595;51.608;7.216;2023-03-01T10:27:25;3.36;67.07
65836;SHT30;52595;51.608;7.216;2023-03-01T10:32:39;3.63;65.48
65836;SHT30;52595;51.608;7.216;2023-03-01T10:35:24;3.82;63.55
65836;SHT30;52595;51.608;7.216;2023-03-01T10:40:28;4.09;63.08
65836;SHT30;52595;51.608;7.216;2023-03-01T10:42:57;4.16;62.07
65836;SHT30;52595;51.608;7.216;2023-03-01T10:50:43;4.54;62.04
65836;SHT30;52595;51.608;7.216;2023-03-01T10:53:40;4.53;61.53
65836;SHT30;52595;51.608;7.216;2023-03-01T10:56:11;4.77;61.97
65836;SHT30;52595;51.608;7.216;2023-03-01T10:58:41;4.90;61.18
65836;SHT30;52595;51.608;7.216;2023-03-01T11:03:41;5.18;59.04
65836;SHT30;52595;51.608;7.216;2023-03-01T11:08:43;5.41;57.90
65836;SHT30;52595;51.608;7.216;2023-03-01T11:11:19;5.93;56.55
65836;SHT30;52595;51.608;7.216;2023-03-01T11:16:29;7.21;53.20
65836;SHT30;52595;51.608;7.216;2023-03-01T11:19:18;8.42;51.13
65836;SHT30;52595;51.608;7.216;2023-03-01T11:21:55;9.09;49.16
65836;SHT30;52595;51.608;7.216;2023-03-01T11:24:29;9.86;47.32
65836;SHT30;52595;51.608;7.216;2023-03-01T11:26:55;9.56;47.14
65836;SHT30;52595;51.608;7.216;2023-03-01T11:29:30;10.11;46.69
65836;SHT30;52595;51.608;7.216;2023-03-01T11:32:01;10.75;45.15
65836;SHT30;52595;51.608;7.216;2023-03-01T11:34:39;10.82;44.85
65836;SHT30;52595;51.608;7.216;2023-03-01T11:37:33;10.89;43.13
65836;SHT30;52595;51.608;7.216;2023-03-01T11:40:23;11.41;42.70
65836;SHT30;52595;51.608;7.216;2023-03-01T11:43:09;12.25;41.75
65836;SHT30;52595;51.608;7.216;2023-03-01T11:45:56;12.39;40.78
65836;SHT30;52595;51.608;7.216;2023-03-01T11:51:09;12.33;40.71
65836;SHT30;52595;51.608;7.216;2023-03-01T11:53:54;12.36;40.38
65836;SHT30;52595;51.608;7.216;2023-03-01T11:56:35;11.82;40.73
65836;SHT30;52595;51.608;7.216;2023-03-01T12:08:11;12.28;39.27
65836;SHT30;52595;51.608;7.216;2023-03-01T12:11:00;13.27;38.94
65836;SHT30;52595;51.608;7.216;2023-03-01T12:14:13;13.47;37.94
65836;SHT30;52595;51.608;7.216;2023-03-01T12:17:15;13.21;38.02
65836;SHT30;52595;51.608;7.216;2023-03-01T12:26:13;14.25;36.98
65836;SHT30;52595;51.608;7.216;2023-03-01T12:39:45;13.23;37.33
65836;SHT30;52595;51.608;7.216;2023-03-01T12:50:41;13.21;36.80
65836;SHT30;52595;51.608;7.216;2023-03-01T12:53:22;14.33;36.84
65836;SHT30;52595;51.608;7.216;2023-03-01T12:55:49;15.38;35.56
65836;SHT30;52595;51.608;7.216;2023-03-01T12:58:33;15.88;35.44
65836;SHT30;52595;51.608;7.216;2023-03-01T13:01:24;16.92;33.61
65836;SHT30;52595;51.608;7.216;2023-03-01T13:04:16;15.69;33.92
65836;SHT30;52595;51.608;7.216;2023-03-01T13:15:28;16.65;33.89
65836;SHT30;52595;51.608;7.216;2023-03-01T13:18:03;16.36;33.91
65836;SHT30;52595;51.608;7.216;2023-03-01T13:20:49;15.98;34.30
65836;SHT30;52595;51.608;7.216;2023-03-01T13:26:12;15.90;34.70
65836;SHT30;52595;51.608;7.216;2023-03-01T13:36:11;16.56;33.05
65836;SHT30;52595;51.608;7.216;2023-03-01T13:39:40;15.96;33.73
65836;SHT30;52595;51.608;7.216;2023-03-01T13:44:32;16.26;34.17
65836;SHT30;52595;51.608;7.216;2023-03-01T13:49:55;16.73;34.40
65836;SHT30;52595;51.608;7.216;2023-03-01T13:52:38;17.28;33.21
65836;SHT30;52595;51.608;7.216;2023-03-01T13:55:17;15.30;35.28
65836;SHT30;52595;51.608;7.216;2023-03-01T13:57:47;16.06;34.07
65836;SHT30;52595;51.608;7.216;2023-03-01T14:00:26;15.11;35.94
65836;SHT30;52595;51.608;7.216;2023-03-01T14:05:38;16.23;34.78
65836;SHT30;52595;51.608;7.216;2023-03-01T14:08:05;16.03;35.05
65836;SHT30;52595;51.608;7.216;2023-03-01T14:10:51;16.63;34.11
65836;SHT30;52595;51.608;7.216;2023-03-01T14:13:28;16.59;33.41
65836;SHT30;52595;51.608;7.216;2023-03-01T14:18:55;16.54;34.34
65836;SHT30;52595;51.608;7.216;2023-03-01T14:21:25;16.91;33.80
65836;SHT30;52595;51.608;7.216;2023-03-01T14:23:52;17.69;32.69
65836;SHT30;52595;51.608;7.216;2023-03-01T14:26:21;17.85;31.96
65836;SHT30;52595;51.608;7.216;2023-03-01T14:28:47;17.17;32.88
65836;SHT30;52595;51.608;7.216;2023-03-01T14:31:38;15.51;34.70
65836;SHT30;52595;51.608;7.216;2023-03-01T14:34:04;16.13;33.88
65836;SHT30;52595;51.608;7.216;2023-03-01T14:36:32;16.68;34.03
65836;SHT30;52595;51.608;7.216;2023-03-01T14:38:59;16.14;33.39
65836;SHT30;52595;51.608;7.216;2023-03-01T14:41:32;15.72;33.44
65836;SHT30;52595;51.608;7.216;2023-03-01T14:44:05;16.52;32.58
65836;SHT30;52595;51.608;7.216;2023-03-01T14:46:41;16.67;33.06
65836;SHT30;52595;51.608;7.216;2023-03-01T14:49:14;15.85;33.97
65836;SHT30;52595;51.608;7.216;2023-03-01T14:51:48;15.62;34.62
65836;SHT30;52595;51.608;7.216;2023-03-01T14:54:37;17.14;33.23
65836;SHT30;52595;51.608;7.216;2023-03-01T14:57:05;16.50;32.30
65836;SHT30;52595;51.608;7.216;2023-03-01T14:59:33;16.92;32.74
65836;SHT30;52595;51.608;7.216;2023-03-01T15:01:59;17.35;32.04
65836;SHT30;52595;51.608;7.216;2023-03-01T15:04:27;17.24;31.53
65836;SHT30;52595;51.608;7.216;2023-03-01T15:06:54;16.36;33.65
65836;SHT30;52595;51.608;7.216;2023-03-01T15:09:21;16.54;33.42
65836;SHT30;52595;51.608;7.216;2023-03-01T15:11:47;16.87;33.74
65836;SHT30;52595;51.608;7.216;2023-03-01T15:14:39;17.68;32.01
65836;SHT30;52595;51.608;7.216;2023-03-01T15:19:56;15.58;33.61
65836;SHT30;52595;51.608;7.216;2023-03-01T15:22:23;15.79;34.54
65836;SHT30;52595;51.608;7.216;2023-03-01T15:24:50;16.09;34.25
65836;SHT30;52595;51.608;7.216;2023-03-01T15:27:18;16.36;33.45
65836;SHT30;52595;51.608;7.216;2023-03-01T15:29:56;15.96;33.97
65836;SHT30;52595;51.608;7.216;2023-03-01T15:35:00;15.31;34.46
65836;SHT30;52595;51.608;7.216;2023-03-01T15:37:47;14.93;35.09
65836;SHT30;52595;51.608;7.216;2023-03-01T15:40:25;14.79;35.07
65836;SHT30;52595;51.608;7.216;2023-03-01T15:42:57;13.54;36.80
65836;SHT30;52595;51.608;7.216;2023-03-01T15:45:25;13.98;37.11
65836;SHT30;52595;51.608;7.216;2023-03-01T15:47:55;14.06;36.91
65836;SHT30;52595;51.608;7.216;2023-03-01T15:50:54;13.82;37.17
65836;SHT30;52595;51.608;7.216;2023-03-01T15:53:20;13.77;37.95
65836;SHT30;52595;51.608;7.216;2023-03-01T15:55:45;13.98;37.43
65836;SHT30;52595;51.608;7.216;2023-03-01T15:58:17;13.74;37.80
65836;SHT30;52595;51.608;7.216;2023-03-01T16:00:44;13.07;38.16
65836;SHT30;52595;51.608;7.216;2023-03-01T16:03:12;13.18;38.17
65836;SHT30;52595;51.608;7.216;2023-03-01T16:05:38;12.57;39.35
65836;SHT30;52595;51.608;7.216;2023-03-01T16:08:05;12.67;39.43
65836;SHT30;52595;51.608;7.216;2023-03-01T16:10:32;12.66;39.43
65836;SHT30;52595;51.608;7.216;2023-03-01T16:12:58;12.42;39.69
65836;SHT30;52595;51.608;7.216;2023-03-01T16:15:31;11.09;41.45
65836;SHT30;52595;51.608;7.216;2023-03-01T16:17:57;11.17;41.87
65836;SHT30;52595;51.608;7.216;2023-03-01T16:20:23;11.20;41.43
65836;SHT30;52595;51.608;7.216;2023-03-01T16:22:50;11.51;40.91
65836;SHT30;52595;51.608;7.216;2023-03-01T16:25:17;11.43;40.61
65836;SHT30;52595;51.608;7.216;2023-03-01T16:27:48;10.24;42.57
65836;SHT30;52595;51.608;7.216;2023-03-01T16:30:15;8.75;45.25
65836;SHT30;52595;51.608;7.216;2023-03-01T16:32:42;7.96;47.66
65836;SHT30;52595;51.608;7.216;2023-03-01T16:35:09;7.32;49.39
65836;SHT30;52595;51.608;7.216;2023-03-01T16:37:36;6.80;51.20
65836;SHT30;52595;51.608;7.216;2023-03-01T16:40:02;6.63;51.76
65836;SHT30;52595;51.608;7.216;2023-03-01T16:42:33;6.33;52.53
65836;SHT30;52595;51.608;7.216;2023-03-01T16:44:59;6.06;53.13
65836;SHT30;52595;51.608;7.216;2023-03-01T16:47:25;5.96;53.73
65836;SHT30;52595;51.608;7.216;2023-03-01T16:49:54;5.79;54.55
65836;SHT30;52595;51.608;7.216;2023-03-01T16:52:20;5.65;55.49
65836;SHT30;52595;51.608;7.216;2023-03-01T16:54:46;5.51;55.12
65836;SHT30;52595;51.608;7.216;2023-03-01T16:57:12;5.37;55.84
65836;SHT30;52595;51.608;7.216;2023-03-01T16:59:37;5.21;56.17
65836;SHT30;52595;51.608;7.216;2023-03-01T17:02:04;5.04;56.82
65836;SHT30;52595;51.608;7.216;2023-03-01T17:04:31;4.94;57.14
65836;SHT30;52595;51.608;7.216;2023-03-01T17:06:56;4.79;57.67
65836;SHT30;52595;51.608;7.216;2023-03-01T17:09:22;4.72;57.93
65836;SHT30;52595;51.608;7.216;2023-03-01T17:11:50;4.64;58.27
65836;SHT30;52595;51.608;7.216;2023-03-01T17:14:16;4.53;58.47
65836;SHT30;52595;51.608;7.216;2023-03-01T17:16:42;4.42;58.46
65836;SHT30;52595;51.608;7.216;2023-03-01T17:19:08;4.23;59.26
65836;SHT30;52595;51.608;7.216;2023-03-01T17:21:34;4.18;59.26
65836;SHT30;52595;51.608;7.216;2023-03-01T17:23:59;4.12;59.46
65836;SHT30;52595;51.608;7.216;2023-03-01T17:26:25;4.02;60.22
65836;SHT30;52595;51.608;7.216;2023-03-01T17:28:53;3.92;60.35
65836;SHT30;52595;51.608;7.216;2023-03-01T17:31:19;3.81;61.01
65836;SHT30;52595;51.608;7.216;2023-03-01T17:33:44;3.79;60.97
65836;SHT30;52595;51.608;7.216;2023-03-01T17:36:10;3.70;61.40
65836;SHT30;52595;51.608;7.216;2023-03-01T17:38:36;3.56;61.74